Latest Weather Observations for Sheffield

IDT60801

Issued at 6:05 pm EST Monday 22 September 2014 (issued every 30 minutes, with the page automatically refreshed every 10 minutes)

About weather observations | Map of weather stations | Latest weather observations for TAS | Other Formats
Station Details ID: 091291 Name: SHEFFIELD SCHOOL FARM Lat: -41.39 Lon: 146.32 Height: 294.2 m
Data from the previous 72 hours. | See also: Recent months at Sheffield
Date/Time
EST
Temp
°C
App
Temp
°C
Dew
Point
Rel
Hum
%
Delta-T
°C
Wind Press
QNH
hPa
Press
MSL
hPa
Rain
since 9 am
mm
Dir
 
Spd
km/h
Gust
km/h
Spd
kts
Gust
kts
22/06:00pm 10.0 7.9 9.7 98 0.2 N 11 17 6 9 1025.7 1026.2 0.0
22/05:30pm 10.6 7.8 10.0 96 0.3 N 15 19 8 10 1025.7 1026.2 0.0
22/05:00pm 11.2 8.5 10.3 94 0.5 NNW 15 20 8 11 1025.5 1026.0 0.0
22/04:30pm 11.8 9.1 10.4 91 0.7 N 15 20 8 11 1025.6 1026.1 0.0
22/04:00pm 12.7 9.7 10.8 88 1.0 N 17 22 9 12 1025.4 1025.9 0.0
22/03:30pm 13.2 10.4 11.3 88 1.0 N 17 24 9 13 1025.6 1026.1 0.0
22/03:00pm 13.9 11.6 11.8 87 1.1 N 15 20 8 11 1025.8 1026.3 0.0
22/02:30pm 14.7 12.1 12.0 84 1.5 N 17 24 9 13 1025.9 1026.4 0.0
22/02:00pm 14.8 12.0 11.4 80 1.8 N 17 20 9 11 1025.9 1026.4 0.0
22/01:30pm 15.7 13.5 10.7 72 2.7 N 13 20 7 11 1026.1 1026.6 0.0
22/01:00pm 15.6 14.4 10.4 71 2.8 N 7 13 4 7 1026.5 1026.9 0.0
22/12:30pm 14.7 13.8 10.7 77 2.1 NNW 6 11 3 6 1026.9 1027.3 0.0
22/12:00pm 14.4 12.6 9.6 73 2.5 NNW 9 13 5 7 1027.4 1027.8 0.0
22/11:30am 13.8 12.6 10.2 79 1.9 NNW 7 13 4 7 1027.5 1027.9 0.0
22/11:00am 13.4 12.2 10.4 82 1.6 NNW 7 11 4 6 1027.7 1028.2 0.0
22/10:30am 13.6 12.6 10.2 80 1.8 NW 6 9 3 5 1028.0 1028.5 0.0
22/10:00am 11.8 10.6 10.2 90 0.8 E 7 9 4 5 1028.4 1028.9 0.0
22/09:30am 12.8 12.1 10.2 84 1.4 E 4 9 2 5 1028.4 1028.9 0.0
22/09:00am 12.0 11.4 9.0 82 1.5 E 2 4 1 2 1028.5 1029.0 0.0
22/08:30am 10.0 9.5 7.8 86 1.1 CALM 0 0 0 0 1028.6 1029.1 0.0
22/08:00am 9.4 8.8 7.5 88 0.9 N 0 0 0 0 1028.5 1029.0 0.0
22/07:30am 6.4 5.6 6.3 99 0.0 CALM 0 0 0 0 1028.4 1028.9 0.0
22/07:00am 4.8 2.9 4.7 99 0.0 NNW 4 4 2 2 1028.4 1028.9 0.0
22/06:30am 4.8 2.9 4.7 99 0.0 N 4 4 2 2 1028.4 1028.9 0.0
22/06:00am 4.3 2.6 4.2 99 0.0 W 2 6 1 3 1028.2 1028.7 0.0
22/05:30am 5.4 4.0 5.4 100 0.0 SW 2 6 1 3 1027.9 1028.4 0.0
22/05:00am 4.8 3.6 4.7 99 0.0 CALM 0 6 0 3 1027.8 1028.3 0.0
22/04:30am 4.8 3.2 4.7 99 0.0 NW 2 4 1 2 1027.6 1028.0 0.0
22/04:00am 4.8 3.2 4.7 99 0.0 NW 2 4 1 2 1027.2 1027.6 0.0
22/03:30am 5.2 3.3 5.1 99 0.0 NW 4 6 2 3 1027.0 1027.4 0.0
22/03:00am 5.5 3.3 5.4 99 0.0 NNW 6 7 3 4 1027.0 1027.4 0.0
22/02:30am 6.2 4.5 5.8 97 0.2 W 4 4 2 2 1027.1 1027.5 0.0
22/02:00am 6.6 5.8 6.3 98 0.1 CALM 0 0 0 0 1027.2 1027.6 0.0
22/01:30am 6.4 5.2 6.3 99 0.0 WNW 2 4 1 2 1027.6 1028.0 0.0
22/01:00am 6.5 4.4 5.9 96 0.3 W 6 6 3 3 1027.8 1028.3 0.0
22/12:30am 7.5 6.3 6.6 94 0.4 WNW 2 4 1 2 1027.8 1028.3 0.0
22/12:00am 7.8 6.7 6.7 93 0.5 NW 2 4 1 2 1028.0 1028.5 0.0
 
Date/Time
EST
Temp
°C
App
Temp
°C
Dew
Point
Rel
Hum
%
Delta-T
°C
Wind Press
QNH
hPa
Press
MSL
hPa
Rain
since 9 am
mm
Dir
 
Spd
km/h
Gust
km/h
Spd
kts
Gust
kts
21/11:30pm 8.1 7.0 6.9 92 0.6 WNW 2 4 1 2 1028.1 1028.6 0.0
21/11:00pm 8.3 6.4 6.9 91 0.7 W 6 7 3 4 1028.0 1028.5 0.0
21/10:30pm 8.6 6.6 7.1 90 0.7 WSW 7 7 4 4 1028.0 1028.5 0.0
21/10:00pm 9.1 8.5 7.5 90 0.8 CALM 0 4 0 2 1028.1 1028.6 0.0
21/09:30pm 9.8 8.1 7.6 86 1.1 WSW 6 6 3 3 1028.0 1028.5 0.0
21/09:00pm 10.8 9.7 8.4 85 1.2 WSW 4 6 2 3 1027.9 1028.4 0.0
21/08:30pm 10.3 9.3 7.4 82 1.4 ESE 2 4 1 2 1027.9 1028.4 0.0
21/08:00pm 11.1 9.5 8.0 81 1.5 SE 6 6 3 3 1027.6 1028.0 0.0
21/07:30pm 12.2 10.4 7.3 72 2.4 SSE 6 6 3 3 1027.4 1027.8 0.0
21/07:00pm 12.9 11.5 7.4 69 2.7 S 4 6 2 3 1027.2 1027.6 0.0
21/06:30pm 13.4 12.8 7.4 67 3.0 CALM 0 0 0 0 1026.9 1027.3 0.0
21/06:00pm 14.1 13.2 7.6 65 3.2 ENE 2 4 1 2 1026.6 1027.0 0.0
21/05:30pm 14.9 13.2 8.4 65 3.3 NE 7 9 4 5 1026.3 1026.7 0.0
21/05:00pm 15.9 14.3 8.9 63 3.6 NNE 7 13 4 7 1026.0 1026.5 0.0
21/04:30pm 17.0 15.5 9.2 60 4.1 N 7 11 4 6 1025.9 1026.4 0.0
21/04:00pm 18.2 16.5 5.8 44 6.1 NNW 4 7 2 4 1025.8 1026.3 0.0
21/03:30pm 17.9 15.7 6.1 46 5.9 NNW 7 11 4 6 1025.8 1026.3 0.0
21/03:00pm 18.0 16.0 7.1 49 5.5 NNW 7 13 4 7 1025.8 1026.3 0.0
21/02:30pm 18.0 16.1 7.7 51 5.3 NNW 7 11 4 6 1025.9 1026.4 0.0
21/02:00pm 17.6 15.7 6.5 48 5.5 W 6 11 3 6 1026.3 1026.7 0.0
21/01:30pm 17.1 15.2 7.7 54 4.8 NW 7 13 4 7 1026.3 1026.7 0.0
21/01:00pm 17.0 15.3 7.6 54 4.8 WNW 6 11 3 6 1026.3 1026.7 0.0
21/12:30pm 16.4 14.3 6.0 50 5.1 W 6 9 3 5 1026.5 1026.9 0.0
21/12:00pm 16.1 13.8 7.3 56 4.4 WSW 9 15 5 8 1026.9 1027.3 0.0
21/11:30am 15.6 12.8 7.1 57 4.3 W 11 17 6 9 1027.0 1027.4 0.0
21/11:00am 15.1 12.1 7.9 62 3.6 WSW 13 20 7 11 1027.2 1027.6 0.0
21/10:30am 14.5 10.0 6.8 60 3.8 WSW 20 28 11 15 1027.3 1027.7 0.0
21/10:00am 14.3 10.5 7.4 63 3.4 SW 17 28 9 15 1027.4 1027.8 0.0
21/09:30am 13.6 9.3 7.2 65 3.2 WSW 19 30 10 16 1027.3 1027.7 0.0
21/09:00am 12.8 11.2 7.9 72 2.4 N 6 9 3 5 1027.4 1027.8 0.0
21/08:30am 11.1 9.0 6.6 74 2.2 NW 7 13 4 7 1027.4 1027.8 0.0
21/08:00am 10.5 8.0 6.5 76 1.9 W 9 15 5 8 1027.2 1027.6 0.0
21/07:30am 9.5 6.8 5.5 76 1.8 WNW 9 13 5 7 1027.3 1027.7 0.0
21/07:00am 8.2 4.9 4.6 78 1.6 W 11 15 6 8 1027.1 1027.5 0.0
21/06:30am 8.1 5.1 3.9 75 1.8 W 9 11 5 6 1026.9 1027.3 0.0
21/06:00am 8.5 4.6 3.6 71 2.1 SSW 13 24 7 13 1026.6 1027.0 0.0
21/05:30am 8.8 4.9 3.4 69 2.4 SW 13 20 7 11 1026.3 1026.7 0.0
21/05:00am 6.4 4.1 3.0 79 1.4 E 4 9 2 5 1026.0 1026.5 0.0
21/04:30am 6.5 3.7 1.8 72 1.9 SSW 6 9 3 5 1025.8 1026.3 0.0
21/04:00am 8.4 5.1 2.4 66 2.5 S 9 15 5 8 1025.6 1026.1 0.0
21/03:30am 8.4 4.4 2.8 68 2.4 WSW 13 22 7 12 1025.5 1026.0 0.0
21/03:00am 7.5 2.5 3.4 75 1.8 WSW 19 26 10 14 1025.4 1025.9 0.0
21/02:30am 7.7 3.0 3.2 73 1.9 W 17 20 9 11 1025.6 1026.1 0.0
21/02:00am 7.7 3.3 2.8 71 2.1 SW 15 26 8 14 1025.8 1026.3 0.0
21/01:30am 7.4 3.4 2.9 73 1.9 SW 13 19 7 10 1025.9 1026.4 0.0
21/01:00am 7.9 5.6 3.0 71 2.1 SSW 4 9 2 5 1026.1 1026.6 0.0
21/12:30am 8.3 4.6 2.1 65 2.6 SSE 11 22 6 12 1026.1 1026.6 0.0
21/12:00am 8.5 4.1 2.5 66 2.5 SSW 15 24 8 13 1025.8 1026.3 0.0
 
Date/Time
EST
Temp
°C
App
Temp
°C
Dew
Point
Rel
Hum
%
Delta-T
°C
Wind Press
QNH
hPa
Press
MSL
hPa
Rain
since 9 am
mm
Dir
 
Spd
km/h
Gust
km/h
Spd
kts
Gust
kts
20/11:30pm 8.8 2.7 2.8 66 2.6 SW 24 37 13 20 1025.7 1026.2 0.0
20/11:00pm 8.8 2.7 2.6 65 2.6 SW 24 39 13 21 1025.8 1026.3 0.0
20/10:30pm 8.7 4.0 3.1 68 2.4 SSW 17 22 9 12 1026.1 1026.6 0.0
20/10:00pm 8.2 4.3 3.5 72 2.0 SW 13 19 7 10 1026.1 1026.6 0.0
20/09:30pm 8.8 4.9 3.2 68 2.4 SW 13 22 7 12 1026.1 1026.6 0.0
20/09:00pm 9.2 2.4 3.0 65 2.7 SW 28 41 15 22 1025.9 1026.4 0.0
20/08:34pm 9.2 2.4 3.0 65 2.7 SW 28 46 15 25 1025.8 1026.3 0.0
20/08:30pm 9.0 2.6 3.0 66 2.6 SW 26 46 14 25 1025.8 1026.3 0.0
20/08:00pm 8.6 2.9 2.8 67 2.5 SW 22 35 12 19 1025.6 1026.1 0.0
20/07:30pm 8.8 3.6 3.4 69 2.4 SW 20 26 11 14 1025.3 1025.8 0.0
20/07:00pm 8.8 4.5 3.2 68 2.4 WSW 15 24 8 13 1025.1 1025.6 0.0
20/06:30pm 9.2 4.2 3.4 67 2.5 WSW 19 26 10 14 1025.3 1025.8 0.0
20/06:00pm 10.0 4.4 3.5 64 2.9 WSW 22 35 12 19 1025.2 1025.7 0.0
20/05:30pm 10.8 4.4 3.4 60 3.3 SW 26 35 14 19 1024.9 1025.4 0.0
20/05:00pm 11.5 5.6 4.0 60 3.4 WSW 24 37 13 20 1024.5 1024.9 0.0
20/04:30pm 12.2 5.2 4.2 58 3.7 WSW 30 41 16 22 1024.2 1024.6 0.0
20/04:00pm 13.2 6.7 4.6 56 4.0 WSW 28 41 15 22 1023.7 1024.1 0.0
20/03:30pm 13.8 7.3 4.9 55 4.2 WSW 28 41 15 22 1023.5 1023.9 0.0
20/03:00pm 14.7 9.8 6.8 59 3.9 WSW 22 33 12 18 1023.3 1023.7 0.0
20/02:30pm 14.5 8.6 5.6 55 4.3 WSW 26 33 14 18 1023.3 1023.7 0.0
20/02:00pm 14.6 8.6 5.4 54 4.4 WSW 26 37 14 20 1023.2 1023.6 0.0
20/01:30pm 14.9 9.3 5.4 53 4.6 WSW 24 32 13 17 1023.1 1023.5 0.0
20/01:00pm 15.0 11.2 6.0 55 4.4 W 15 20 8 11 1023.4 1023.8 0.0
20/12:30pm 14.9 11.2 6.5 57 4.1 W 15 24 8 13 1023.3 1023.7 0.0
20/12:00pm 14.5 10.0 6.1 57 4.1 WSW 19 26 10 14 1023.6 1024.0 0.0
20/11:30am 14.1 9.9 5.5 56 4.1 W 17 26 9 14 1023.7 1024.1 0.0
20/11:00am 13.9 10.9 7.9 67 3.0 W 13 19 7 10 1023.9 1024.3 0.0
20/10:30am 13.5 8.8 5.9 60 3.7 SW 20 28 11 15 1024.0 1024.4 0.0
20/10:00am 13.0 8.4 6.6 65 3.1 WSW 20 28 11 15 1024.1 1024.5 0.0
20/09:30am 12.6 8.5 6.2 65 3.1 WSW 17 24 9 13 1024.2 1024.6 0.0
20/09:00am 11.6 7.7 5.5 66 2.9 W 15 24 8 13 1024.2 1024.6 0.0
20/08:30am 11.2 8.3 6.5 73 2.3 W 11 17 6 9 1024.0 1024.4 0.0
20/08:00am 10.6 7.8 6.9 78 1.8 WSW 11 20 6 11 1023.9 1024.3 0.0
20/07:30am 8.8 5.9 6.3 84 1.2 WSW 11 13 6 7 1023.4 1023.8 0.0
20/07:00am 7.2 5.0 5.2 87 0.9 NW 6 7 3 4 1023.2 1023.6 0.0
20/06:30am 7.2 4.8 4.5 83 1.2 WNW 6 9 3 5 1022.9 1023.3 0.0
20/06:00am 7.1 4.5 4.1 81 1.3 SW 7 9 4 5 1022.3 1022.8 0.0
20/05:30am 7.5 5.0 3.9 78 1.6 W 6 9 3 5 1021.9 1022.4 0.0
20/05:00am 7.7 5.9 3.7 76 1.7 NW 2 7 1 4 1021.4 1021.8 0.0
20/04:30am 8.6 7.0 4.4 75 1.9 NW 2 7 1 4 1021.1 1021.5 0.0
20/04:00am 7.3 5.2 3.7 78 1.6 N 4 9 2 5 1020.9 1021.3 0.0
20/03:30am 7.8 4.9 4.6 80 1.4 SW 9 15 5 8 1020.5 1020.9 0.0
20/03:00am 8.3 5.1 4.9 79 1.5 SW 11 13 6 7 1020.4 1020.8 0.0
20/02:30am 8.4 7.0 5.5 82 1.3 E 2 6 1 3 1020.3 1020.7 0.0
20/02:00am 7.7 5.3 5.3 85 1.1 NW 7 20 4 11 1020.2 1020.6 0.0
20/01:30am 6.6 3.7 4.8 88 0.8 NW 9 13 5 7 1020.4 1020.8 0.0
20/01:00am 7.6 5.2 5.1 84 1.1 NNW 7 15 4 8 1020.4 1020.8 0.0
20/12:30am 8.7 5.1 4.9 77 1.7 W 13 20 7 11 1020.1 1020.5 0.0
20/12:00am 9.1 3.7 4.5 73 2.1 WSW 22 30 12 16 1019.8 1020.2 0.0
 
Date/Time
EST
Temp
°C
App
Temp
°C
Dew
Point
Rel
Hum
%
Delta-T
°C
Wind Press
QNH
hPa
Press
MSL
hPa
Rain
since 9 am
mm
Dir
 
Spd
km/h
Gust
km/h
Spd
kts
Gust
kts
19/11:30pm 9.1 4.6 4.3 72 2.2 SW 17 26 9 14 1019.8 1020.2 0.0
19/11:00pm 9.2 4.4 4.6 73 2.1 SW 19 26 10 14 1019.9 1020.3 0.0
19/10:30pm 9.1 4.6 4.3 72 2.2 SW 17 26 9 14 1019.7 1020.1 0.0
19/10:00pm 9.9 3.8 4.7 70 2.4 SW 26 35 14 19 1019.6 1020.0 0.0
19/09:30pm 9.9 4.3 5.3 73 2.1 SW 24 44 13 24 1019.5 1019.9 0.0
19/09:00pm 9.8 4.2 5.2 73 2.1 SW 24 35 13 19 1019.3 1019.7 0.0
19/08:30pm 10.1 5.2 5.1 71 2.3 SW 20 33 11 18 1018.9 1019.3 0.0
19/08:00pm 10.1 6.1 4.9 70 2.4 W 15 35 8 19 1018.5 1018.9 0.0
19/07:30pm 10.4 6.0 5.0 69 2.5 SW 17 26 9 14 1018.4 1018.8 0.0
19/07:00pm 10.4 5.4 4.5 67 2.7 WSW 20 41 11 22 1018.2 1018.6 0.0
19/06:30pm 10.8 5.5 4.9 67 2.7 WSW 22 30 12 16 1017.5 1017.9 0.0

Other Formats:

Comma delimited format used in spreadsheet applications
http://www.bom.gov.au/fwo/IDT60801/IDT60801.94955.axf

JavaScript Object Notation format (JSON) in row-major order
http://www.bom.gov.au/fwo/IDT60801/IDT60801.94955.json